createdAt,value
2019-04-05T00:01:19.459Z,31.53
2019-04-05T00:04:07.363Z,12.10
2019-04-05T00:06:55.186Z,33.50
2019-04-05T00:09:43.266Z,34.83
2019-04-05T00:12:19.421Z,33.47
2019-04-05T00:15:15.077Z,33.57
2019-04-05T00:17:50.774Z,32.47
2019-04-05T00:20:31.190Z,22.23
2019-04-05T00:23:11.422Z,33.70
2019-04-05T00:25:39.869Z,35.37
2019-04-05T00:28:08.304Z,29.10
2019-04-05T00:30:56.109Z,34.97
2019-04-05T00:33:24.541Z,35.20
2019-04-05T00:36:12.341Z,31.97
2019-04-05T00:39:00.119Z,21.57
2019-04-05T00:41:47.897Z,34.93
2019-04-05T00:44:35.677Z,35.17
2019-04-05T00:47:04.196Z,8.63
2019-04-05T00:49:45.318Z,38.00
2019-04-05T00:52:26.146Z,36.80
2019-04-05T00:54:54.598Z,37.77
2019-04-05T00:57:42.383Z,27.73
2019-04-05T01:00:30.169Z,8.10
2019-04-05T01:02:58.607Z,35.73
2019-04-05T01:05:46.824Z,40.53
2019-04-05T01:08:34.617Z,27.07
2019-04-05T01:11:22.695Z,41.00
2019-04-05T01:14:10.469Z,41.63
2019-04-05T01:16:38.917Z,42.27
2019-04-05T01:19:47.516Z,44.40
2019-04-05T01:22:35.842Z,44.10
2019-04-05T01:25:44.338Z,43.23
2019-04-05T01:28:32.198Z,30.93
2019-04-05T01:31:19.988Z,43.23
2019-04-05T01:34:07.859Z,25.33
2019-04-05T01:36:48.094Z,44.17
2019-04-05T01:39:29.073Z,46.63
2019-04-05T01:41:57.573Z,45.23
2019-04-05T01:44:45.372Z,44.17
2019-04-05T01:47:32.833Z,40.90
2019-04-05T01:50:21.131Z,34.90
2019-04-05T01:53:08.901Z,40.30
2019-04-05T01:55:56.699Z,37.73
2019-04-05T01:58:44.503Z,41.40
2019-04-05T02:01:12.957Z,43.23
2019-04-05T02:04:00.814Z,38.53
2019-04-05T02:06:48.988Z,9.37
2019-04-05T02:09:37.398Z,44.53
2019-04-05T02:12:25.184Z,43.43
2019-04-05T02:15:33.751Z,8.90
2019-04-05T02:18:14.725Z,13.20
2019-04-05T02:20:55.649Z,9.20
2019-04-05T02:23:36.394Z,22.03
2019-04-05T02:26:17.253Z,31.90
2019-04-05T02:28:46.085Z,41.53
2019-04-05T02:31:34.221Z,42.10
2019-04-05T02:34:14.482Z,8.20
2019-04-05T02:36:42.905Z,15.07
2019-04-05T02:39:31.203Z,23.30
2019-04-05T02:42:39.729Z,42.43
2019-04-05T02:45:48.229Z,41.67
2019-04-05T02:48:56.737Z,41.07
2019-04-05T02:52:05.260Z,19.90
2019-04-05T02:55:13.799Z,26.27
2019-04-05T02:58:22.319Z,11.23
2019-04-05T03:01:10.120Z,31.57
2019-04-05T03:03:58.320Z,37.67
2019-04-05T03:06:46.188Z,42.00
2019-04-05T03:09:34.312Z,41.87
2019-04-05T03:12:22.259Z,41.70
2019-04-05T03:15:10.816Z,43.87
2019-04-05T03:17:59.017Z,43.40
2019-04-05T03:20:46.959Z,44.37
2019-04-05T03:23:55.570Z,39.67
2019-04-05T03:27:04.077Z,37.90
2019-04-05T03:30:12.608Z,16.03
2019-04-05T03:33:00.480Z,39.03
2019-04-05T03:35:41.228Z,41.53
2019-04-05T03:38:21.873Z,42.13
2019-04-05T03:41:02.640Z,44.43
2019-04-05T03:43:43.511Z,44.33
2019-04-05T03:46:24.294Z,44.37
2019-04-05T03:49:05.394Z,46.40
2019-04-05T03:52:13.895Z,47.37
2019-04-05T03:55:01.962Z,47.27
2019-04-05T03:57:49.810Z,46.43
2019-04-05T04:00:37.603Z,46.77
2019-04-05T04:03:25.497Z,47.00
2019-04-05T04:06:13.611Z,47.90
2019-04-05T04:09:01.502Z,50.57
2019-04-05T04:11:49.658Z,77.83
2019-04-05T04:14:37.719Z,50.37
2019-04-05T04:17:25.526Z,48.33
2019-04-05T04:20:32.625Z,49.00
2019-04-05T04:23:41.209Z,49.73
2019-04-05T04:26:09.925Z,48.03
2019-04-05T04:28:58.072Z,15.50
2019-04-05T04:31:45.834Z,45.63
2019-04-05T04:34:26.411Z,45.33
2019-04-05T04:37:07.486Z,33.43
2019-04-05T04:39:48.790Z,37.47
2019-04-05T04:42:29.935Z,41.67
2019-04-05T04:45:12.506Z,32.63
2019-04-05T04:47:53.954Z,41.80
2019-04-05T04:50:34.980Z,38.17
2019-04-05T04:53:15.866Z,44.33
2019-04-05T04:55:56.770Z,44.03
2019-04-05T04:58:37.454Z,45.00
2019-04-05T05:01:18.641Z,45.87
2019-04-05T05:03:59.458Z,44.07
2019-04-05T05:06:39.951Z,46.30
2019-04-05T05:09:20.538Z,35.60
2019-04-05T05:12:01.442Z,30.50
2019-04-05T05:14:42.170Z,47.30
2019-04-05T05:17:22.517Z,40.03
2019-04-05T05:20:03.384Z,47.60
2019-04-05T05:22:44.507Z,48.80
2019-04-05T05:25:53.008Z,48.13
2019-04-05T05:28:40.803Z,49.37
2019-04-05T05:31:28.583Z,48.47
2019-04-05T05:34:16.792Z,49.97
2019-04-05T05:37:04.759Z,49.60
2019-04-05T05:39:53.175Z,50.13
2019-04-05T05:42:41.301Z,50.10
2019-04-05T05:45:29.182Z,50.67
2019-04-05T05:48:17.381Z,18.17
2019-04-05T05:51:05.188Z,45.83
2019-04-05T05:53:33.620Z,34.20
2019-04-05T05:56:21.442Z,47.43
2019-04-05T05:59:02.600Z,28.13
2019-04-05T06:01:43.671Z,47.37
2019-04-05T06:04:24.472Z,48.73
2019-04-05T06:07:05.396Z,48.67
2019-04-05T06:09:33.882Z,47.67
2019-04-05T06:12:21.709Z,48.60
2019-04-05T06:15:09.560Z,47.17
2019-04-05T06:18:04.546Z,26.80
2019-04-05T06:20:46.871Z,46.70
2019-04-05T06:23:35.021Z,45.90
2019-04-05T06:26:22.805Z,48.30
2019-04-05T06:29:10.631Z,48.27
2019-04-05T06:31:58.481Z,46.83
2019-04-05T06:34:46.300Z,49.03
2019-04-05T06:37:27.642Z,50.20
2019-04-05T06:40:11.818Z,51.30
2019-04-05T06:42:52.511Z,51.23
2019-04-05T06:45:33.218Z,53.10
2019-04-05T06:48:19.502Z,48.43
2019-04-05T06:50:56.363Z,48.70
2019-04-05T06:53:37.224Z,50.63
2019-04-05T06:56:17.859Z,48.93
2019-04-05T06:58:58.525Z,36.00
2019-04-05T07:01:39.614Z,50.03
2019-04-05T07:04:08.059Z,49.93
2019-04-05T07:06:55.857Z,38.13
2019-04-05T07:09:43.652Z,52.20
2019-04-05T07:12:31.485Z,51.57
2019-04-05T07:15:19.727Z,51.77
2019-04-05T07:18:07.831Z,51.67
2019-04-05T07:20:57.931Z,52.60
2019-04-05T07:23:25.837Z,49.67
2019-04-05T07:26:13.996Z,49.83
2019-04-05T07:28:54.818Z,51.00
2019-04-05T07:31:35.776Z,51.40
2019-04-05T07:34:04.437Z,50.67
2019-04-05T07:36:52.258Z,49.43
2019-04-05T07:39:40.065Z,51.43
2019-04-05T07:42:27.833Z,51.90
2019-04-05T07:45:15.693Z,51.43
2019-04-05T07:48:03.538Z,49.30
2019-04-05T07:50:51.386Z,49.63
2019-04-05T07:53:39.291Z,48.60
2019-04-05T07:56:27.362Z,47.67
2019-04-05T07:59:15.173Z,49.07
2019-04-05T08:02:02.963Z,37.63
2019-04-05T08:04:31.654Z,50.83
2019-04-05T08:07:40.162Z,49.83
2019-04-05T08:10:27.948Z,50.53
2019-04-05T08:13:16.668Z,51.67
2019-04-05T08:16:04.509Z,51.27
2019-04-05T08:18:58.129Z,51.60
2019-04-05T08:21:42.093Z,50.13
2019-04-05T08:24:30.432Z,51.23
2019-04-05T08:27:18.234Z,50.17
2019-04-05T08:30:06.682Z,51.80
2019-04-05T08:32:54.526Z,53.27
2019-04-05T08:35:35.251Z,52.43
2019-04-05T08:38:03.868Z,52.20
2019-04-05T08:40:51.758Z,51.40
2019-04-05T08:43:39.560Z,51.57
2019-04-05T08:46:27.334Z,49.07
2019-04-05T08:49:15.381Z,51.17
2019-04-05T08:52:03.191Z,52.27
2019-04-05T08:54:51.362Z,50.77
2019-04-05T08:57:39.137Z,51.37
2019-04-05T09:00:26.949Z,49.77
2019-04-05T09:03:14.726Z,49.60
2019-04-05T09:06:02.513Z,51.00
2019-04-05T09:08:30.969Z,52.60
2019-04-05T09:11:11.713Z,49.33
2019-04-05T09:13:40.202Z,52.00
2019-04-05T09:16:27.981Z,51.70
2019-04-05T09:19:23.512Z,52.17
2019-04-05T09:22:05.373Z,50.80
2019-04-05T09:24:33.842Z,50.17
2019-04-05T09:27:21.970Z,51.33
2019-04-05T09:30:09.830Z,53.20
2019-04-05T09:32:57.627Z,50.57
2019-04-05T09:35:45.493Z,52.50
2019-04-05T09:38:32.970Z,53.13
2019-04-05T09:41:21.033Z,51.17
2019-04-05T09:44:08.854Z,49.63
2019-04-05T09:46:56.702Z,50.80
2019-04-05T09:49:44.502Z,52.20
2019-04-05T09:52:32.302Z,36.27
2019-04-05T09:55:20.228Z,50.93
2019-04-05T09:58:10.102Z,49.50
2019-04-05T10:00:58.027Z,51.53
2019-04-05T10:03:45.880Z,49.43
2019-04-05T10:06:33.713Z,50.03
2019-04-05T10:09:21.553Z,51.17
2019-04-05T10:12:09.337Z,50.73
2019-04-05T10:14:57.149Z,50.60
2019-04-05T10:17:44.988Z,50.77
2019-04-05T10:20:32.821Z,52.17
2019-04-05T10:23:21.230Z,50.23
2019-04-05T10:26:09.005Z,52.67
2019-04-05T10:28:56.830Z,51.50
2019-04-05T10:31:44.839Z,53.60
2019-04-05T10:34:32.977Z,53.83
2019-04-05T10:37:13.986Z,52.37
2019-04-05T10:39:42.750Z,53.23
2019-04-05T10:42:51.262Z,52.30
2019-04-05T10:45:39.064Z,54.53
2019-04-05T10:48:27.136Z,51.70
2019-04-05T10:51:14.936Z,51.83
2019-04-05T10:54:02.706Z,52.50
2019-04-05T10:56:31.175Z,52.50
2019-04-05T10:59:19.207Z,15.73
2019-04-05T11:02:07.002Z,50.87
2019-04-05T11:04:54.797Z,50.73
2019-04-05T11:07:42.662Z,51.63
2019-04-05T11:10:30.472Z,52.67
2019-04-05T11:13:18.325Z,49.50
2019-04-05T11:16:06.137Z,52.17
2019-04-05T11:18:53.998Z,52.40
2019-04-05T11:21:41.764Z,52.83
2019-04-05T11:24:29.564Z,53.93
2019-04-05T11:26:57.993Z,53.90
2019-04-05T11:29:45.781Z,53.50
2019-04-05T11:32:33.590Z,54.90
2019-04-05T11:35:02.382Z,52.00
2019-04-05T11:37:43.377Z,52.00
2019-04-05T11:40:24.463Z,53.13
2019-04-05T11:43:06.114Z,52.13
2019-04-05T11:49:03.834Z,53.33
2019-04-05T11:51:52.886Z,51.80
2019-04-05T11:54:40.787Z,52.53
2019-04-05T11:57:28.616Z,50.57
2019-04-05T12:00:55.075Z,52.80
2019-04-05T12:04:03.715Z,52.17
2019-04-05T12:06:52.113Z,51.80
2019-04-05T12:09:41.405Z,52.00
2019-04-05T12:12:29.217Z,52.03
2019-04-05T12:15:16.991Z,52.60
2019-04-05T12:18:05.284Z,51.97
2019-04-05T12:20:47.312Z,52.27
2019-04-05T12:23:24.501Z,49.87
2019-04-05T12:26:12.303Z,51.47
2019-04-05T12:29:00.338Z,39.20
2019-04-05T12:36:59.551Z,52.60
2019-04-05T12:39:43.764Z,52.37
2019-04-05T12:42:24.306Z,53.27
2019-04-05T12:45:05.283Z,52.43
2019-04-05T12:47:34.073Z,53.40
2019-04-05T12:50:22.182Z,53.37
2019-04-05T12:53:10.023Z,53.67
2019-04-05T12:55:57.887Z,55.70
2019-04-05T12:58:45.694Z,57.63
2019-04-05T13:01:33.667Z,59.47
2019-04-05T13:04:21.592Z,60.17
2019-04-05T13:07:09.589Z,60.27
2019-04-05T13:09:57.678Z,58.03
2019-04-05T13:13:04.979Z,57.43
2019-04-05T13:15:53.208Z,56.50
2019-04-05T13:21:49.772Z,56.07
2019-04-05T13:28:13.289Z,58.87
2019-04-05T13:30:35.746Z,59.93
2019-04-05T13:33:24.051Z,63.83
2019-04-05T13:36:13.234Z,63.30
2019-04-05T13:39:01.309Z,63.27
2019-04-05T13:41:42.455Z,64.47
2019-04-05T13:44:11.487Z,67.87
2019-04-05T13:46:59.262Z,63.47
2019-04-05T13:49:47.166Z,65.17
2019-04-05T13:58:46.132Z,66.17
2019-04-05T14:01:50.754Z,68.03
2019-04-05T14:04:23.439Z,65.87
2019-04-05T14:06:56.861Z,70.57
2019-04-05T14:09:34.663Z,65.43
2019-04-05T14:12:35.473Z,67.37
2019-04-05T14:15:23.997Z,67.40
2019-04-05T14:18:16.691Z,71.50
2019-04-05T14:20:49.672Z,71.30
2019-04-05T14:23:47.928Z,70.03
2019-04-05T14:25:48.688Z,72.77
2019-04-05T14:28:21.359Z,66.70
2019-04-05T14:31:04.163Z,64.27
2019-04-05T14:33:24.413Z,61.30
2019-04-05T14:35:54.390Z,62.33
2019-04-05T14:38:31.041Z,58.60
2019-04-05T14:41:12.789Z,60.40
2019-04-05T14:44:00.689Z,58.67
2019-04-05T14:49:48.398Z,63.57
2019-04-05T14:52:39.869Z,62.77
2019-04-05T14:55:11.633Z,64.93
2019-04-05T14:57:40.975Z,65.40
2019-04-05T15:00:14.825Z,62.40
2019-04-05T15:02:51.229Z,62.37
2019-04-05T15:05:20.023Z,65.63
2019-04-05T15:08:04.534Z,66.83
2019-04-05T15:10:21.064Z,62.73
2019-04-05T15:12:53.611Z,60.73
2019-04-05T15:15:22.505Z,60.77
2019-04-05T15:17:51.690Z,57.67
2019-04-05T15:20:40.157Z,58.77
2019-04-05T15:23:14.074Z,60.40
2019-04-05T15:25:44.516Z,62.60
2019-04-05T15:28:13.697Z,63.50
2019-04-05T15:30:49.449Z,65.10
2019-04-05T15:36:12.340Z,61.53
2019-04-05T15:38:42.951Z,62.60
2019-04-05T15:41:12.858Z,60.70
2019-04-05T15:43:45.758Z,56.87
2019-04-05T15:49:17.142Z,53.60
2019-04-05T15:51:47.924Z,55.87
2019-04-05T15:54:17.501Z,53.93
2019-04-05T15:56:46.206Z,57.33
2019-04-05T15:59:15.025Z,55.20
2019-04-05T16:02:03.912Z,56.77
2019-04-05T16:04:52.434Z,53.70
2019-04-05T16:07:21.835Z,51.00
2019-04-05T16:10:31.285Z,48.93
2019-04-05T16:13:18.901Z,50.33
2019-04-05T16:16:06.818Z,49.83
2019-04-05T16:18:58.083Z,50.87
2019-04-05T16:21:25.504Z,50.50
2019-04-05T16:23:54.265Z,50.77
2019-04-05T16:26:42.534Z,51.93
2019-04-05T16:29:30.863Z,50.20
2019-04-05T16:32:18.826Z,47.20
2019-04-05T16:35:06.830Z,46.43
2019-04-05T16:37:54.871Z,46.57
2019-04-05T16:40:24.717Z,45.70
2019-04-05T16:43:12.992Z,43.63
2019-04-05T16:46:22.352Z,43.07
2019-04-05T16:49:03.032Z,43.03
2019-04-05T16:51:40.654Z,43.57
2019-04-05T16:54:28.547Z,42.50
2019-04-05T16:57:16.495Z,43.17
2019-04-05T16:59:45.125Z,43.20
2019-04-05T17:02:53.768Z,43.53
2019-04-05T17:05:41.672Z,41.97
2019-04-05T17:08:45.457Z,42.53
2019-04-05T17:11:19.271Z,42.70
2019-04-05T17:14:07.321Z,42.73
2019-04-05T17:16:55.396Z,42.40
2019-04-05T17:22:57.997Z,43.73
2019-04-05T17:25:41.290Z,41.00
2019-04-05T17:28:29.117Z,43.20
2019-04-05T17:31:17.006Z,42.37
2019-04-05T17:34:04.956Z,41.40
2019-04-05T17:36:33.412Z,43.13
2019-04-05T17:39:14.453Z,45.23
2019-04-05T17:41:55.678Z,44.87
2019-04-05T17:44:36.257Z,43.90
2019-04-05T17:47:17.406Z,46.40
2019-04-05T17:49:58.166Z,44.93
2019-04-05T17:52:38.841Z,43.27
2019-04-05T17:55:19.930Z,43.73
2019-04-05T17:58:00.647Z,44.07
2019-04-05T18:00:41.748Z,42.63
2019-04-05T18:03:10.319Z,45.63
2019-04-05T18:05:58.139Z,45.10
2019-04-05T18:08:45.974Z,44.33
2019-04-05T18:11:33.838Z,43.30
2019-04-05T18:14:02.275Z,45.53
2019-04-05T18:16:31.095Z,43.90
2019-04-05T18:19:18.941Z,44.23
2019-04-05T18:22:06.434Z,44.80
2019-04-05T18:24:54.233Z,44.67
2019-04-05T18:27:35.231Z,45.23
2019-04-05T18:30:24.838Z,45.60
2019-04-05T18:33:12.639Z,45.23
2019-04-05T18:36:00.431Z,43.87
2019-04-05T18:38:48.226Z,44.47
2019-04-05T18:41:29.413Z,42.97
2019-04-05T18:44:10.613Z,45.10
2019-04-05T18:46:51.417Z,43.50
2019-04-05T18:49:32.318Z,44.47
2019-04-05T18:52:13.451Z,44.07
2019-04-05T18:54:54.342Z,45.40
2019-04-05T18:57:35.421Z,43.93
2019-04-05T19:00:24.777Z,44.23
2019-04-05T19:03:12.875Z,44.37
2019-04-05T19:06:00.655Z,43.37
2019-04-05T19:08:48.446Z,43.53
2019-04-05T19:11:28.706Z,43.57
2019-04-05T19:14:09.398Z,44.10
2019-04-05T19:16:50.382Z,44.30
2019-04-05T19:19:31.251Z,43.67
2019-04-05T19:22:12.212Z,45.80
2019-04-05T19:24:53.433Z,44.57
2019-04-05T19:27:24.258Z,42.97
2019-04-05T19:49:39.698Z,41.30
2019-04-05T19:52:27.550Z,41.07
2019-04-05T19:55:15.350Z,42.37
2019-04-05T19:58:03.207Z,40.00
2019-04-05T20:00:51.068Z,42.57
2019-04-05T20:03:38.853Z,41.23
2019-04-05T20:06:26.716Z,42.47
2019-04-05T20:09:14.555Z,40.67
2019-04-05T20:12:02.485Z,39.90
2019-04-05T20:14:50.651Z,40.30
2019-04-05T20:17:38.911Z,39.20
2019-04-05T20:20:47.483Z,39.57
2019-04-05T20:23:35.558Z,38.83
2019-04-05T20:26:04.163Z,39.30
2019-04-05T20:28:52.080Z,38.70
2019-04-05T20:31:39.928Z,41.70
2019-04-05T20:34:27.724Z,38.17
2019-04-05T20:37:15.548Z,39.67
2019-04-05T20:40:24.168Z,39.13
2019-04-05T20:43:04.787Z,40.17
2019-04-05T20:45:45.572Z,40.40
2019-04-05T20:48:26.711Z,40.53
2019-04-05T20:51:08.062Z,40.97
2019-04-05T20:53:49.333Z,40.17
2019-04-05T20:56:17.792Z,39.60
2019-04-05T20:59:05.743Z,39.40
2019-04-05T21:01:34.423Z,39.90
2019-04-05T21:04:22.439Z,39.50
2019-04-05T21:07:10.681Z,40.73
2019-04-05T21:09:58.592Z,41.27
2019-04-05T21:12:46.568Z,40.60
2019-04-05T21:15:35.547Z,40.33
2019-04-05T21:18:04.190Z,40.27
2019-04-05T21:20:52.085Z,38.93
2019-04-05T21:23:40.302Z,39.37
2019-04-05T21:26:28.327Z,39.97
2019-04-05T21:29:16.198Z,38.77
2019-04-05T21:32:04.083Z,40.87
2019-04-05T21:34:52.066Z,41.13
2019-04-05T21:37:20.509Z,40.57
2019-04-05T21:40:08.633Z,41.30
2019-04-05T21:42:49.586Z,40.40
2019-04-05T21:45:30.427Z,39.97
2019-04-05T21:48:11.800Z,39.50
2019-04-05T21:50:52.743Z,39.67
2019-04-05T21:53:33.624Z,42.17
2019-04-05T21:56:14.686Z,40.77
2019-04-05T21:58:55.763Z,41.87
2019-04-05T22:01:36.275Z,41.63
2019-04-05T22:04:17.411Z,42.27
2019-04-05T22:06:58.639Z,40.03
2019-04-05T22:09:27.116Z,41.80
2019-04-05T22:12:15.348Z,41.87
2019-04-05T22:15:03.354Z,42.60
2019-04-05T22:17:32.262Z,43.63
2019-04-05T22:20:20.068Z,42.67
2019-04-05T22:23:08.326Z,41.60
2019-04-05T22:25:56.132Z,41.80
2019-04-05T22:28:43.951Z,44.27
2019-04-05T22:31:31.989Z,44.00
2019-04-05T22:34:19.831Z,43.13
2019-04-05T22:37:07.688Z,43.27
2019-04-05T22:39:55.470Z,43.43
2019-04-05T22:42:43.611Z,41.13
2019-04-05T22:45:31.405Z,43.63
2019-04-05T22:48:19.218Z,41.70
2019-04-05T22:51:07.085Z,42.20
2019-04-05T22:53:55.254Z,39.53
2019-04-05T22:56:35.518Z,41.00
2019-04-05T22:59:04.105Z,42.87
2019-04-05T23:01:51.932Z,40.50
2019-04-05T23:04:39.837Z,40.97
2019-04-05T23:10:28.551Z,40.83
2019-04-05T23:13:16.051Z,41.37
2019-04-05T23:16:03.996Z,42.67
2019-04-05T23:18:51.829Z,41.83
2019-04-05T23:21:39.714Z,41.00
2019-04-05T23:24:27.928Z,42.40
2019-04-05T23:27:15.769Z,41.60
2019-04-05T23:30:04.802Z,42.23
2019-04-05T23:32:52.689Z,41.47
2019-04-05T23:35:40.543Z,43.53
2019-04-05T23:38:28.634Z,40.20
2019-04-05T23:41:16.798Z,42.13
2019-04-05T23:44:04.658Z,40.50
2019-04-05T23:46:52.760Z,41.00
2019-04-05T23:49:42.068Z,40.73
2019-04-05T23:52:29.902Z,42.00
2019-04-05T23:55:17.749Z,41.67
2019-04-05T23:58:05.544Z,41.10
